WFDK1: Walnut River, Winfield, KS

Data processed at Sun Apr 30 2017 23:05


All information presented herein is the property of the government of the United States of America and may be revised or deleted at any time without prior notice.
Dissemination of this information without the expressed written consent of the Public Affairs Office, Tulsa District U.S. Army Corps of Engineers is strictly prohibited.
These data are gathered electronically and, as presented, have not undergone any form of quality control. These data are not guaranteed to be valid or correct.
Go to home page.
Go to station list.
Go to station map.

Upstream stations:

Downstream station:
Previous Day
Next Day
Current Day
    
SHEF ID:       WFDK1     WALNUT R AT WINFIELD, KS
STATION TYPE:  

               PRECIP     STAGE  RIV-FLOW  BAT-LOAD
                   in        ft       cfs      volt
              Ccp-Rev   Ccp-Rev   Ccp-Rev   Ccp-Rev
(US/Central)
04/30 00:00      0.04      9.28      6540     12.25
04/30 01:00      0.03      9.44      6720     12.25
04/30 02:00      0.03      9.64      6950     12.25
04/30 03:00      0.03      9.83      7160     11.77
04/30 04:00      0.02     10.08      7450     12.25
04/30 05:00      0.04     10.30      7700     12.25
04/30 06:00      0.03     10.61      8070     12.25
04/30 07:00      0.04     10.90      8410     12.25
04/30 08:00      0.03     11.07      8610     12.25
04/30 09:00      0.03     11.49      9120     12.25
04/30 10:00      0.03     12.01      9760     12.89
04/30 11:00      0.03     12.16      9940     12.89
04/30 12:00      0.02     12.44     10300     12.81
04/30 13:00      0.01     12.76     10700     13.05
04/30 14:00      0.01     12.96     10900     13.05
04/30 15:00      0.01     13.09     11100     13.05
04/30 16:00      0.01     13.32     11400     12.97
04/30 17:00      0.01     13.43     11600     12.97
04/30 18:00      0.01     13.59     11800     12.89
04/30 19:00      0.01     13.58     11700     12.81
04/30 20:00      0.02     13.71     11900     12.57
04/30 21:00      0.00     13.80     12000     12.57
04/30 22:00      0.01     13.86     12100     12.49
04/30 23:00      ----     13.92      ----     12.41